Airfield :
LOGIN :

Register | Disclaimer

   EN    FR    IT 

 










Legend :    VFR   Marginal VFR   IFR   Intensive IFR   Very Intensive IFR
Visi :
Ceiling :
>= 8 km
>= 3000ft
5 to 8 km
1000 to 3000 ft
1500m to 5 km
500 to 1000 ft
800 to 1500m
200 to 500 ft
< 800m
< 200 ft
Symbols :   Thunderstorms  Fog  Heavy snow  Heavy precipitations  Wind > 20 kt
SIGMETs :     Misc.  Thunderstorms  Icing  Turbulence  Mountain Waves  Volcanic Ashes






- Airport Elevation : 9 ft
- IATA code : MIR


DTMB - Habib Bourguliba Int. Monastir

CURRENT METAR :
  • 241230Z 13007KT 8000 NSC 20/14 Q1022

EXPIRED METARs :
  • 241200Z 15006KT 110V190 8000 NSC 20/13 Q1022
  • 241130Z 15006KT 100V190 8000 NSC 19/13 Q1023
  • 241100Z 16008KT 8000 FEW017 19/14 Q1023
  • 241030Z 15009KT 120V180 8000 SCT016 18/14 Q1024
  • 241000Z 14008KT 5000 BKN013 17/15 Q1024

TAF TAF DTMB
Valid from the 24 at 12:00 until the 25 at 12:00 UTC


241100Z 2412/2512 15006KT 8000 NSC
BECMG 2500/2502 30005KT 5000 SCT020
PROB40
TEMPO 2503/2506 3000 BR



MET'MAP, your aeronautical weather chart ! - Copyright ORBIFLY December 2007 - Disclaimer

ORBIFLY MET'MAP TEAM :

Programming & Development : Alexandra Zaïnal
Concept & original design : Baudouin d'Aumeries
Assistance for programming : Marc-Olivier Méhu
Technical & hardware support : Manuel Goepfert

Contact : metmap@orbifly.com




SOURCES & CREDITS :

   NOAA